Kovel, Ukraine
Current Conditions -  °F | °C
As of 6:00 PM on Saturday 25 Oct 2014 (Local Time) from UKLR Reporting Station
Clear Clear  
Wind Chill: 29°   Ceiling: Unl
Heat Index: 36°   Visibility: 6mi
Dew Point:   Wind: 9mph
Humidity: 30%   Direction: 130°SE
Pressure: 30.48"   Gusts: NA
Location:  51.22°N, 24.72°E
Report Text: UKLR 251500Z 13004MPS 100V170 CAVOK 02/M14 Q1032 NOSIG
Loading
Personal Weather Stations






























Interactive Weather Map
Tropical Storm Tracking
New forecast layout! Learn more

10-Day Weather Forecast

Advertisements
Track Severe Weather on mobile